Etusivu
METAR-TAF:

METAR-TAF

Lentoasemat :

Nancy, Ranska

Leveyspiiri: 48-41N, Pituuspiiri: 006-13E, korkeus merenpinnasta: 225 m

Tämänhetkinen sää

Tämä raportti tehtiin 35 minuuttia sitten, kello 06.00 UTC
Tuuli 1 kn eri suunnista
Lämpötila 5°C
Kosteus 93%
Ilmanpaine 1028 hPa
Näkyvyys: 5000 m
utua

METAR: LFSN 210600Z AUTO VRB01KT 5000 BR NSC 05/04 Q1028

Aika: 08:35 (06:35 UTC)


TAF: puuttuu

Säähavainnot ja -ennusteet yli 4000 lentoasemalta (METAR- ja TAF-raportit).

Käytössä olevat sääasemat on merkitty karttaan keltaisilla ja punaisilla pisteillä.

Aseta hiiri pisteen päälle nähdäksesi sääaseman nimen.

Klikkaa sitten nähdäksesi säähavainnot ja -ennusteet.

Kartan vaihtaminen: klikkaa mustalla rastilla varustettuja vihreitä pisteitä, niin voit zoomata sisään; viivalla varustettua vihreää pistettä, niin voit zoomata ulos tai vihreitä nuolia, niin pääset viereisille kartoille.


METAR-TAF: